createdAt,value
2018-12-30T00:07:02.644Z,17.10
2018-12-30T00:17:26.249Z,18.13
2018-12-30T00:27:57.302Z,15.83
2018-12-30T00:38:20.780Z,20.23
2018-12-30T00:48:44.269Z,15.07
2018-12-30T00:59:07.755Z,22.00
2018-12-30T01:09:31.225Z,20.60
2018-12-30T01:19:55.023Z,16.40
2018-12-30T01:30:18.504Z,23.33
2018-12-30T01:40:41.993Z,21.43
2018-12-30T01:51:05.487Z,20.63
2018-12-30T02:01:28.955Z,14.80
2018-12-30T02:11:52.422Z,18.53
2018-12-30T02:22:15.885Z,18.73
2018-12-30T02:32:47.163Z,22.97
2018-12-30T02:43:10.575Z,23.43
2018-12-30T02:53:34.038Z,24.57
2018-12-30T03:03:57.427Z,19.53
2018-12-30T03:14:28.989Z,19.37
2018-12-30T03:24:52.467Z,20.93
2018-12-30T03:35:15.920Z,17.40
2018-12-30T03:45:38.027Z,22.57
2018-12-30T03:56:00.170Z,20.90
2018-12-30T04:06:23.568Z,18.63
2018-12-30T04:38:06.229Z,23.27
2018-12-30T04:48:29.679Z,16.27
2018-12-30T04:58:53.054Z,13.23
2018-12-30T05:09:16.445Z,16.50
2018-12-30T05:19:39.831Z,20.17
2018-12-30T05:30:03.258Z,16.40
2018-12-30T05:40:26.645Z,16.13
2018-12-30T05:50:50.030Z,17.17
2018-12-30T06:01:13.443Z,13.10
2018-12-30T06:22:16.286Z,14.37
2018-12-30T06:32:39.651Z,12.57
2018-12-30T06:43:03.110Z,13.85
2018-12-30T06:53:26.500Z,15.37
2018-12-30T07:03:49.890Z,14.03
2018-12-30T07:14:13.264Z,15.60
2018-12-30T07:24:36.730Z,15.37
2018-12-30T07:35:00.149Z,13.63
2018-12-30T07:45:23.601Z,12.07
2018-12-30T07:55:47.076Z,11.73
2018-12-30T08:06:10.481Z,12.60
2018-12-30T08:16:33.883Z,15.00
2018-12-30T08:26:57.345Z,10.80
2018-12-30T08:37:20.724Z,16.40
2018-12-30T08:47:44.124Z,11.75
2018-12-30T08:58:06.223Z,20.30
2018-12-30T09:08:28.334Z,14.10
2018-12-30T09:18:50.846Z,13.17
2018-12-30T09:29:13.743Z,11.23
2018-12-30T09:39:36.136Z,14.37
2018-12-30T09:49:59.542Z,10.43
2018-12-30T10:00:22.979Z,14.10
2018-12-30T10:10:46.377Z,9.63
2018-12-30T10:21:09.759Z,9.37
2018-12-30T10:31:33.291Z,11.90
2018-12-30T10:52:37.072Z,14.07
2018-12-30T11:13:40.419Z,13.83
2018-12-30T11:24:08.468Z,12.20
2018-12-30T11:34:35.311Z,13.40
2018-12-30T11:44:58.781Z,16.33
2018-12-30T11:55:28.783Z,17.07
2018-12-30T12:05:52.193Z,17.57
2018-12-30T12:16:15.603Z,13.30
2018-12-30T12:26:38.990Z,17.77
2018-12-30T12:37:02.451Z,17.23
2018-12-30T12:47:25.923Z,11.80
2018-12-30T12:57:49.352Z,18.30
2018-12-30T13:08:12.773Z,17.23
2018-12-30T13:18:36.235Z,16.77
2018-12-30T13:29:11.971Z,18.40
2018-12-30T13:39:35.489Z,21.97
2018-12-30T13:49:58.907Z,14.43
2018-12-30T14:00:22.298Z,14.10
2018-12-30T14:10:45.779Z,18.00
2018-12-30T14:21:09.235Z,20.27
2018-12-30T14:31:32.674Z,8.37
2018-12-30T14:41:56.097Z,15.87
2018-12-30T14:52:19.526Z,17.07
2018-12-30T15:02:42.956Z,15.43
2018-12-30T15:13:06.369Z,18.77
2018-12-30T15:34:09.232Z,20.45
2018-12-30T15:44:32.655Z,23.20
2018-12-30T15:54:54.876Z,48.13
2018-12-30T16:05:18.379Z,29.57
2018-12-30T16:15:41.841Z,24.45
2018-12-30T16:26:05.335Z,27.70
2018-12-30T16:47:09.336Z,30.57
2018-12-30T16:57:32.836Z,40.37
2018-12-30T17:07:56.313Z,37.30
2018-12-30T17:18:19.732Z,33.93
2018-12-30T17:28:43.189Z,35.70
2018-12-30T17:39:07.117Z,39.30
2018-12-30T17:49:30.536Z,46.87
2018-12-30T17:59:54.013Z,51.37
2018-12-30T18:10:17.417Z,53.30
2018-12-30T18:20:40.824Z,55.33
2018-12-30T18:31:04.259Z,59.33
2018-12-30T18:41:27.749Z,61.43
2018-12-30T18:51:51.182Z,63.37
2018-12-30T19:02:14.667Z,57.57
2018-12-30T19:12:38.200Z,68.63
2018-12-30T19:23:01.707Z,65.20
2018-12-30T19:33:25.169Z,66.47
2018-12-30T19:43:48.693Z,70.90
2018-12-30T19:54:12.245Z,64.50
2018-12-30T20:04:40.664Z,59.97
2018-12-30T20:15:08.598Z,61.13
2018-12-30T20:25:32.217Z,59.87
2018-12-30T20:36:10.285Z,61.53
2018-12-30T20:46:27.364Z,64.58
2018-12-30T20:56:50.774Z,59.47
2018-12-30T21:07:15.086Z,56.40
2018-12-30T21:17:38.496Z,52.43
2018-12-30T21:28:00.502Z,52.90
2018-12-30T21:38:23.972Z,54.23
2018-12-30T21:48:47.445Z,54.83
2018-12-30T22:20:30.762Z,60.43
2018-12-30T22:30:54.218Z,63.73
2018-12-30T22:41:17.732Z,61.83
2018-12-30T22:51:41.138Z,62.83
2018-12-30T23:02:04.653Z,63.50
2018-12-30T23:12:28.107Z,61.63
2018-12-30T23:22:51.519Z,53.33
2018-12-30T23:33:14.937Z,65.30
2018-12-30T23:43:38.349Z,69.90
2018-12-30T23:54:01.765Z,64.60
